Time;durP1;ratioP1;P1;durP2;ratioP2;P2;SDS_P1;SDS_P2;PMS_P1;PMS_P2;Temp;Humidity;BMP_temperature;BMP_pressure;BME280_temperature;BME280_humidity;BME280_pressure;Samples;Min_cycle;Max_cycle;Signal;HPM_P1;HPM_P2
2023/11/28 00:02:26;;;;;;;30.90;18.00;;;;;;;-0.44;83.28;97037.20;226165;1275;22590;-74
2023/11/28 00:07:33;;;;;;;28.80;19.00;;;;;;;-0.47;83.45;97031.73;226331;1275;24273;-75
2023/11/28 00:12:35;;;;;;;30.70;18.20;;;;;;;-0.48;83.51;97029.66;226353;1273;22552;-75
2023/11/28 00:17:38;;;;;;;35.00;21.40;;;;;;;-0.50;83.82;97022.09;226191;1275;22598;-75
2023/11/28 00:22:40;;;;;;;30.50;18.80;;;;;;;-0.53;84.02;97010.58;226269;1275;22542;-75
2023/11/28 00:27:42;;;;;;;29.30;19.00;;;;;;;-0.54;83.96;97002.77;226292;1272;22610;-75
2023/11/28 00:32:48;;;;;;;31.60;19.80;;;;;;;-0.57;84.10;96993.94;226428;1272;22558;-75
2023/11/28 00:37:51;;;;;;;32.30;21.20;;;;;;;-0.60;84.27;96989.14;226307;1275;22544;-75
2023/11/28 00:43:01;;;;;;;36.70;22.50;;;;;;;-0.60;84.31;96981.48;226413;1275;22628;-75
2023/11/28 00:48:03;;;;;;;32.00;19.80;;;;;;;-0.62;84.50;96978.57;226306;1275;22592;-74
2023/11/28 00:53:05;;;;;;;35.10;21.80;;;;;;;-0.66;84.59;96968.28;226233;1275;22536;-74
2023/11/28 00:58:07;;;;;;;32.60;21.00;;;;;;;-0.70;84.57;96968.66;226266;1275;22722;-74
2023/11/28 01:03:10;;;;;;;33.70;20.10;;;;;;;-0.72;84.68;96965.13;226347;1273;22552;-74
2023/11/28 01:08:12;;;;;;;36.60;21.50;;;;;;;-0.72;84.67;96956.96;226287;1273;22542;-74
2023/11/28 01:13:15;;;;;;;30.90;19.60;;;;;;;-0.74;85.00;96943.55;226317;1275;22706;-74
2023/11/28 01:18:17;;;;;;;31.40;19.60;;;;;;;-0.75;84.93;96934.13;226325;1273;22547;-74
2023/11/28 01:23:21;;;;;;;34.30;21.50;;;;;;;-0.74;85.40;96922.41;226264;1275;22626;-75
2023/11/28 01:28:23;;;;;;;30.20;18.10;;;;;;;-0.75;85.52;96918.41;226369;1272;22563;-76
2023/11/28 01:33:25;;;;;;;33.90;20.90;;;;;;;-0.75;85.83;96909.92;226268;1275;22547;-75
2023/11/28 01:38:27;;;;;;;30.20;20.20;;;;;;;-0.74;85.33;96901.90;226331;1275;22669;-75
2023/11/28 01:43:30;;;;;;;30.30;19.20;;;;;;;-0.72;85.43;96889.42;226471;1269;25020;-76
2023/11/28 01:48:34;;;;;;;31.80;19.80;;;;;;;-0.75;85.48;96877.05;226291;1274;22584;-76
2023/11/28 01:53:37;;;;;;;31.80;21.00;;;;;;;-0.74;85.75;96871.32;226383;1275;22690;-76
2023/11/28 01:58:40;;;;;;;34.00;22.00;;;;;;;-0.76;85.66;96870.69;226131;1272;22692;-76
2023/11/28 02:03:43;;;;;;;30.60;18.90;;;;;;;-0.76;85.92;96866.50;226360;1273;22545;-75
2023/11/28 02:08:45;;;;;;;29.90;18.70;;;;;;;-0.72;86.36;96858.22;226331;1275;22809;-76
2023/11/28 02:13:47;;;;;;;32.50;19.20;;;;;;;-0.68;86.00;96855.67;226381;1275;25904;-75
2023/11/28 02:18:50;;;;;;;29.90;19.30;;;;;;;-0.66;85.87;96840.23;226335;1275;22623;-76
2023/11/28 02:23:52;;;;;;;31.40;21.60;;;;;;;-0.68;85.94;96827.95;226339;1273;22941;-76
2023/11/28 02:28:56;;;;;;;33.30;20.20;;;;;;;-0.70;85.88;96814.73;226362;1275;22558;-76
2023/11/28 02:33:58;;;;;;;29.30;18.90;;;;;;;-0.73;85.69;96812.56;226347;1270;22786;-76
2023/11/28 02:39:00;;;;;;;30.60;19.60;;;;;;;-0.76;85.88;96804.09;226276;1275;22570;-75
2023/11/28 02:44:03;;;;;;;30.40;19.00;;;;;;;-0.76;86.04;96788.70;226137;1275;22551;-76
2023/11/28 02:49:05;;;;;;;31.90;19.80;;;;;;;-0.75;86.00;96779.62;226224;1275;22661;-76
2023/11/28 02:54:07;;;;;;;31.70;19.30;;;;;;;-0.73;86.24;96770.39;226312;1275;22551;-75
2023/11/28 02:59:09;;;;;;;27.60;18.30;;;;;;;-0.70;86.37;96765.92;226376;1269;22540;-75
2023/11/28 03:04:11;;;;;;;26.30;17.00;;;;;;;-0.70;86.15;96755.70;226354;1273;22605;-76
2023/11/28 03:09:14;;;;;;;26.90;16.60;;;;;;;-0.70;86.29;96739.18;226360;1275;22618;-75
2023/11/28 03:14:16;;;;;;;29.30;17.90;;;;;;;-0.68;86.13;96730.83;226343;1273;22756;-76
2023/11/28 03:19:19;;;;;;;29.80;18.30;;;;;;;-0.72;86.08;96722.23;226300;1275;22589;-75
2023/11/28 03:24:21;;;;;;;26.60;17.00;;;;;;;-0.72;86.21;96717.38;226405;1272;22540;-75
2023/11/28 03:29:23;;;;;;;26.40;17.10;;;;;;;-0.74;86.27;96712.83;226059;1275;25484;-76
2023/11/28 03:34:26;;;;;;;26.60;16.60;;;;;;;-0.73;86.77;96707.98;226279;1275;22556;-75
2023/11/28 03:39:28;;;;;;;24.70;15.80;;;;;;;-0.73;86.14;96700.08;226328;1275;22624;-76
2023/11/28 03:44:30;;;;;;;22.50;15.10;;;;;;;-0.74;86.30;96698.58;226349;1275;25444;-75
2023/11/28 03:49:33;;;;;;;24.70;16.60;;;;;;;-0.69;86.47;96696.08;226373;1273;22566;-75
2023/11/28 03:54:35;;;;;;;26.20;15.90;;;;;;;-0.70;86.47;96688.89;226426;1272;22895;-75
2023/11/28 03:59:38;;;;;;;24.30;16.00;;;;;;;-0.70;86.51;96679.67;226786;1275;22608;-75
2023/11/28 04:04:41;;;;;;;21.40;14.50;;;;;;;-0.69;86.41;96671.36;226363;1272;22600;-76
2023/11/28 04:09:44;;;;;;;25.60;16.80;;;;;;;-0.69;86.65;96661.85;226412;1273;22765;-76
2023/11/28 04:14:46;;;;;;;24.90;15.80;;;;;;;-0.67;86.63;96662.11;226385;1272;22541;-76
2023/11/28 04:19:48;;;;;;;24.40;15.40;;;;;;;-0.64;86.63;96659.09;226350;1273;22564;-75
2023/11/28 04:24:50;;;;;;;26.30;17.30;;;;;;;-0.62;86.77;96654.29;226571;1272;22682;-76
2023/11/28 04:29:57;;;;;;;26.70;17.10;;;;;;;-0.60;86.95;96641.94;226639;1272;22543;-76
2023/11/28 04:34:59;;;;;;;27.50;18.10;;;;;;;-0.59;86.61;96633.65;226501;1269;22783;-76
2023/11/28 04:40:04;;;;;;;26.90;17.70;;;;;;;-0.56;87.05;96626.45;226519;1272;23274;-76
2023/11/28 04:45:09;;;;;;;24.00;16.30;;;;;;;-0.54;86.75;96622.23;226532;1275;22554;-76
2023/11/28 04:50:12;;;;;;;26.50;16.80;;;;;;;-0.56;86.92;96620.91;226355;1275;22559;-76
2023/11/28 04:55:14;;;;;;;25.10;15.80;;;;;;;-0.54;86.85;96615.29;226324;1275;22540;-76
2023/11/28 05:00:16;;;;;;;28.30;17.40;;;;;;;-0.51;86.85;96607.17;226364;1275;22954;-76
2023/11/28 05:05:19;;;;;;;26.50;17.10;;;;;;;-0.49;87.02;96591.77;226302;1275;26191;-76
2023/11/28 05:10:21;;;;;;;24.90;15.90;;;;;;;-0.49;86.87;96586.77;226275;1275;22737;-75
2023/11/28 05:15:24;;;;;;;25.80;17.10;;;;;;;-0.48;86.81;96575.11;226289;1275;22608;-75
2023/11/28 05:20:26;;;;;;;28.90;17.60;;;;;;;-0.50;86.92;96569.79;226278;1272;22686;-75
2023/11/28 05:25:29;;;;;;;24.50;15.60;;;;;;;-0.49;86.95;96572.89;226175;1275;22588;-74
2023/11/28 05:30:32;;;;;;;26.80;17.60;;;;;;;-0.50;86.97;96569.11;226346;1273;22544;-74
2023/11/28 05:35:34;;;;;;;28.50;17.80;;;;;;;-0.50;87.02;96563.30;226358;1273;22737;-74
2023/11/28 05:40:37;;;;;;;27.10;18.50;;;;;;;-0.46;86.97;96561.36;226216;1275;22544;-75
2023/11/28 05:45:40;;;;;;;26.80;16.50;;;;;;;-0.46;86.94;96556.32;226963;1274;24311;-75
2023/11/28 05:50:42;;;;;;;27.10;18.80;;;;;;;-0.48;87.09;96554.13;226491;1275;23190;-75
2023/11/28 05:55:48;;;;;;;28.00;17.70;;;;;;;-0.48;86.94;96547.90;226396;1269;25294;-75
2023/11/28 06:00:51;;;;;;;26.10;17.40;;;;;;;-0.47;87.34;96551.61;226352;1275;24705;-76
2023/11/28 06:05:53;;;;;;;28.50;17.80;;;;;;;-0.46;87.20;96552.01;226401;1275;22536;-75
2023/11/28 06:10:55;;;;;;;28.60;17.50;;;;;;;-0.45;87.19;96550.50;226314;1275;22536;-75
2023/11/28 06:15:58;;;;;;;31.10;19.40;;;;;;;-0.43;87.29;96548.52;226255;1272;22567;-76
2023/11/28 06:21:01;;;;;;;31.70;21.60;;;;;;;-0.39;87.29;96549.11;226253;1267;24883;-76
2023/11/28 06:26:03;;;;;;;35.10;22.80;;;;;;;-0.34;87.39;96548.56;226276;1272;25293;-75
2023/11/28 06:31:06;;;;;;;30.50;20.90;;;;;;;-0.34;87.25;96551.19;226209;1252;24241;-74
2023/11/28 06:36:09;;;;;;;37.00;21.90;;;;;;;-0.34;87.06;96546.16;226485;1272;22684;-76
2023/11/28 06:41:11;;;;;;;37.40;24.20;;;;;;;-0.36;87.08;96547.90;226360;1275;24205;-76
2023/11/28 06:46:18;;;;;;;38.90;23.70;;;;;;;-0.37;87.02;96549.91;226352;1273;22774;-75
2023/11/28 06:51:21;;;;;;;38.90;24.50;;;;;;;-0.35;87.08;96548.83;226189;1259;22560;-74
2023/11/28 06:56:23;;;;;;;39.90;24.30;;;;;;;-0.27;87.06;96553.35;226280;1258;22616;-73
2023/11/28 07:01:25;;;;;;;46.60;29.00;;;;;;;-0.22;87.01;96549.98;226213;1256;22631;-73
2023/11/28 07:06:27;;;;;;;43.40;27.30;;;;;;;-0.19;86.87;96543.57;225913;1253;22553;-73
2023/11/28 07:11:30;;;;;;;40.00;26.40;;;;;;;-0.21;86.64;96542.45;225914;1253;24788;-73
2023/11/28 07:16:32;;;;;;;46.60;28.10;;;;;;;-0.21;86.41;96551.46;225892;1264;22597;-75
2023/11/28 07:21:34;;;;;;;42.20;28.90;;;;;;;-0.19;86.74;96549.67;225355;1253;22552;-75
2023/11/28 07:26:36;;;;;;;42.10;25.80;;;;;;;-0.15;86.50;96548.74;225561;1269;22636;-74
2023/11/28 07:31:38;;;;;;;42.30;26.40;;;;;;;-0.11;86.24;96543.69;225721;1253;24898;-74
2023/11/28 07:36:43;;;;;;;37.80;24.30;;;;;;;-0.10;86.15;96544.87;225772;1256;23011;-73
2023/11/28 07:41:48;;;;;;;36.80;25.60;;;;;;;-0.07;85.71;96541.48;225772;1256;22686;-77
2023/11/28 07:46:51;;;;;;;36.00;25.10;;;;;;;-0.09;85.47;96545.55;225707;1256;22629;-73
2023/11/28 07:51:53;;;;;;;42.20;26.20;;;;;;;-0.10;85.48;96541.27;225668;1256;22523;-75
2023/11/28 07:56:55;;;;;;;39.50;24.00;;;;;;;-0.06;85.62;96538.41;225640;1256;22738;-76
2023/11/28 08:01:57;;;;;;;35.90;23.80;;;;;;;-0.06;85.28;96534.43;225720;1262;22568;-76
2023/11/28 08:06:59;;;;;;;39.50;23.60;;;;;;;-0.00;85.35;96537.42;225584;1262;22722;-76
2023/11/28 08:12:03;;;;;;;36.60;22.90;;;;;;;0.07;85.07;96534.81;225653;1256;23612;-77
2023/11/28 08:17:05;;;;;;;35.20;23.40;;;;;;;0.09;84.84;96540.29;225539;1253;22540;-77
2023/11/28 08:22:07;;;;;;;36.20;23.50;;;;;;;0.15;85.05;96536.88;225503;1260;22555;-77
2023/11/28 08:27:09;;;;;;;60.20;26.00;;;;;;;0.27;85.27;96535.30;225699;1262;22551;-77
2023/11/28 08:32:11;;;;;;;37.10;24.40;;;;;;;0.35;84.89;96532.90;225949;1254;26288;-76
2023/11/28 08:37:15;;;;;;;33.80;17.90;;;;;;;0.39;84.59;96533.54;226123;1253;22533;-76
2023/11/28 08:42:17;;;;;;;53.00;28.10;;;;;;;0.42;84.39;96531.56;225944;1259;22533;-75
2023/11/28 08:47:19;;;;;;;38.20;23.90;;;;;;;0.54;84.79;96536.41;225986;1256;25357;-74
2023/11/28 08:52:23;;;;;;;38.50;25.20;;;;;;;0.74;84.93;96530.94;226023;1269;22552;-74
2023/11/28 08:57:33;;;;;;;43.30;26.90;;;;;;;0.88;84.62;96525.40;225946;1264;25253;-75
2023/11/28 09:02:35;;;;;;;;;;;;;;;1.05;84.40;96527.30;225843;1269;22544;-75
2023/11/28 09:07:37;;;;;;;43.30;26.40;;;;;;;1.17;84.07;96527.66;225836;1253;22577;-74
2023/11/28 09:12:41;;;;;;;43.30;26.70;;;;;;;1.31;84.04;96527.09;225892;1253;22630;-74
2023/11/28 09:17:43;;;;;;;40.10;25.00;;;;;;;1.38;83.28;96525.95;225978;1265;24645;-74
2023/11/28 09:22:47;;;;;;;43.20;23.60;;;;;;;1.35;83.00;96523.88;225697;1272;22536;-74
2023/11/28 09:27:49;;;;;;;34.80;24.70;;;;;;;1.37;83.09;96521.05;225725;1257;22572;-74
2023/11/28 09:32:51;;;;;;;40.30;25.70;;;;;;;1.36;83.07;96528.77;225717;1272;22547;-76
2023/11/28 09:37:54;;;;;;;34.60;23.00;;;;;;;1.35;82.98;96535.12;225667;1262;22537;-76
2023/11/28 09:42:57;;;;;;;38.70;25.00;;;;;;;1.38;82.93;96537.03;225546;1265;22551;-74
2023/11/28 09:48:06;;;;;;;35.20;23.80;;;;;;;1.38;82.70;96535.08;225715;1260;22555;-74
2023/11/28 09:53:08;;;;;;;36.10;24.00;;;;;;;1.41;82.98;96531.42;225826;1261;22999;-74
2023/11/28 09:58:13;;;;;;;45.20;29.10;;;;;;;1.61;83.30;96521.55;226059;1269;22918;-84
2023/11/28 10:03:15;;;;;;;51.40;31.20;;;;;;;1.78;82.97;96512.16;225877;1272;22582;-79
2023/11/28 10:08:21;;;;;;;47.10;31.30;;;;;;;1.96;82.73;96506.19;225958;1266;22569;-76
2023/11/28 10:13:23;;;;;;;49.80;31.40;;;;;;;2.13;82.78;96495.09;225978;1256;22587;-76
2023/11/28 10:18:25;;;;;;;49.60;33.00;;;;;;;2.24;81.96;96489.71;226090;1257;25522;-76
2023/11/28 10:23:28;;;;;;;48.70;29.10;;;;;;;2.25;81.57;96485.34;225776;1275;22547;-76
2023/11/28 10:28:33;;;;;;;51.20;32.90;;;;;;;2.22;81.19;96480.85;225812;1256;22573;-76
2023/11/28 10:33:35;;;;;;;45.10;29.60;;;;;;;2.23;81.36;96474.80;225974;1272;22546;-76
2023/11/28 10:38:37;;;;;;;47.20;29.30;;;;;;;2.28;80.91;96474.54;225882;1269;22586;-75
2023/11/28 10:43:43;;;;;;;39.10;25.00;;;;;;;2.30;81.10;96477.40;225888;1272;22549;-77
2023/11/28 10:48:45;;;;;;;37.00;25.40;;;;;;;2.34;80.70;96480.80;226349;1254;22547;-77
2023/11/28 10:53:52;;;;;;;41.30;27.10;;;;;;;2.34;80.71;96479.06;225904;1272;22592;-77
2023/11/28 10:58:56;;;;;;;46.60;29.00;;;;;;;2.34;80.44;96483.77;225955;1251;22552;-77
2023/11/28 11:03:59;;;;;;;42.90;28.10;;;;;;;2.34;80.71;96483.20;225923;1256;24269;-77
2023/11/28 11:09:06;;;;;;;39.90;26.00;;;;;;;2.34;80.65;96478.55;226049;1266;22533;-77
2023/11/28 11:14:30;;;;;;;33.80;23.20;;;;;;;2.31;80.33;96473.00;225945;1264;23106;-77
2023/11/28 11:19:36;;;;;;;41.30;27.10;;;;;;;2.34;80.35;96471.36;226041;1272;22564;-77
2023/11/28 11:24:38;;;;;;;54.60;34.00;;;;;;;2.26;79.90;96478.27;225735;1265;176377;-76
2023/11/28 11:29:41;;;;;;;49.60;30.90;;;;;;;2.14;80.28;96485.29;226013;1263;22878;-77
2023/11/28 11:34:49;;;;;;;47.30;26.80;;;;;;;2.12;80.40;96490.20;226077;1270;22555;-77
2023/11/28 11:39:52;;;;;;;38.40;24.10;;;;;;;2.05;80.02;96492.97;225804;1270;22547;-78
2023/11/28 11:45:02;;;;;;;46.90;29.00;;;;;;;1.98;79.93;96492.32;225747;1256;22937;-79
2023/11/28 11:50:06;;;;;;;45.60;29.20;;;;;;;1.97;80.20;96486.81;226255;1254;22552;-79
2023/11/28 11:55:13;;;;;;;44.60;29.20;;;;;;;1.97;80.02;96493.34;225921;1256;22556;-80
2023/11/28 12:00:19;;;;;;;41.70;27.00;;;;;;;1.96;80.09;96494.27;225910;1263;25242;-74
2023/11/28 12:05:21;;;;;;;34.80;23.40;;;;;;;1.91;79.94;96492.23;226013;1265;22550;-82
2023/11/28 12:10:25;;;;;;;34.10;21.70;;;;;;;1.90;80.08;96501.37;225719;1254;22545;-79
2023/11/28 12:15:27;;;;;;;36.90;22.70;;;;;;;1.75;79.89;96513.38;225842;1256;22551;-80
2023/11/28 12:20:31;;;;;;;35.40;22.20;;;;;;;1.55;79.87;96517.81;226010;1272;22920;-78
2023/11/28 12:25:43;;;;;;;34.90;21.70;;;;;;;1.36;79.89;96525.81;225802;1256;22644;-80
2023/11/28 12:30:46;;;;;;;37.30;21.90;;;;;;;1.20;80.30;96530.73;225784;1256;22555;-78
2023/11/28 12:35:49;;;;;;;33.20;20.60;;;;;;;1.09;80.33;96532.45;225596;1256;22664;-80
2023/11/28 12:40:55;;;;;;;34.60;21.10;;;;;;;0.98;80.49;96543.74;225683;1251;22555;-82
2023/11/28 12:46:11;;;;;;;33.00;21.40;;;;;;;0.92;80.67;96550.02;225557;1267;22558;-82
2023/11/28 12:51:16;;;;;;;34.60;21.80;;;;;;;0.86;80.60;96554.54;225893;1256;22582;-82
2023/11/28 12:56:18;;;;;;;31.70;21.10;;;;;;;0.80;80.71;96559.45;225909;1253;22647;-82
2023/11/28 13:01:22;;;;;;;34.00;22.70;;;;;;;0.77;80.89;96564.13;225960;1272;22527;-84
2023/11/28 13:06:26;;;;;;;34.80;22.80;;;;;;;0.74;81.09;96565.23;225851;1265;25217;-80
2023/11/28 13:11:31;;;;;;;34.00;21.90;;;;;;;0.70;81.03;96568.23;225973;1265;22554;-82
2023/11/28 13:16:33;;;;;;;35.10;22.60;;;;;;;0.66;81.03;96575.46;225939;1272;22567;-78
2023/11/28 13:21:41;;;;;;;31.70;21.60;;;;;;;0.65;81.17;96573.92;225904;1253;22558;-79
2023/11/28 13:26:43;;;;;;;29.50;20.10;;;;;;;0.60;81.29;96577.70;227148;1264;22569;-81
2023/11/28 13:31:45;;;;;;;31.90;21.40;;;;;;;0.55;81.51;96582.88;225946;1254;22695;-80
2023/11/28 13:36:49;;;;;;;37.70;23.30;;;;;;;0.47;81.48;96589.70;225861;1265;22565;-81
2023/11/28 13:41:51;;;;;;;35.30;22.60;;;;;;;0.38;81.62;96590.39;226157;1257;22716;-81
2023/11/28 13:46:53;;;;;;;34.20;22.90;;;;;;;0.29;81.73;96601.41;225891;1260;22800;-81
2023/11/28 13:51:56;;;;;;;36.70;23.50;;;;;;;0.20;81.68;96613.28;225863;1263;22564;-79
2023/11/28 13:57:00;;;;;;;33.50;22.70;;;;;;;0.12;81.86;96619.75;225679;1266;22546;-84
2023/11/28 14:02:04;;;;;;;34.10;21.70;;;;;;;0.04;82.05;96625.52;226168;1256;22544;-81
2023/11/28 14:07:07;;;;;;;35.80;22.20;;;;;;;-0.06;81.75;96623.88;225942;1257;22556;-83
2023/11/28 14:12:13;;;;;;;30.40;19.60;;;;;;;-0.16;82.00;96633.27;226108;1267;22598;-80
2023/11/28 14:17:16;;;;;;;34.40;22.80;;;;;;;-0.26;82.28;96631.50;225688;1263;22646;-82
2023/11/28 14:22:23;;;;;;;38.30;23.90;;;;;;;-0.35;81.99;96638.96;225843;1260;22546;-80
2023/11/28 14:27:27;;;;;;;28.70;19.80;;;;;;;-0.42;82.01;96644.62;227011;1263;22650;-83
2023/11/28 14:32:29;;;;;;;34.20;20.20;;;;;;;-0.49;82.13;96655.02;225749;1261;22882;-80
2023/11/28 14:37:33;;;;;;;34.50;21.60;;;;;;;-0.57;82.45;96658.06;226132;1270;22790;-83
2023/11/28 14:42:36;;;;;;;33.90;21.50;;;;;;;-0.64;82.67;96662.48;226313;1255;22548;-82
2023/11/28 14:47:38;;;;;;;36.30;22.80;;;;;;;-0.69;82.75;96674.46;225918;1272;22602;-84
2023/11/28 14:52:44;;;;;;;31.10;21.20;;;;;;;-0.73;82.99;96692.64;225934;1259;22552;-79
2023/11/28 14:57:48;;;;;;;32.80;20.60;;;;;;;-0.75;83.02;96702.43;226025;1266;22950;-83
2023/11/28 15:02:53;;;;;;;32.00;21.10;;;;;;;-0.79;82.98;96705.55;225870;1254;23638;-80
2023/11/28 15:07:55;;;;;;;32.40;20.50;;;;;;;-0.82;83.37;96712.30;225582;1267;22609;-78
2023/11/28 15:12:58;;;;;;;31.30;20.40;;;;;;;-0.84;83.31;96716.71;225537;1276;22742;-78
2023/11/28 15:18:00;;;;;;;31.60;20.70;;;;;;;-0.89;83.13;96722.53;225477;1274;22567;-78
2023/11/28 15:23:02;;;;;;;30.20;19.60;;;;;;;-0.93;83.42;96736.73;225605;1276;22645;-78
2023/11/28 15:28:05;;;;;;;28.50;18.80;;;;;;;-0.98;83.55;96746.27;225712;1270;22551;-78
2023/11/28 15:33:07;;;;;;;30.90;19.00;;;;;;;-1.04;83.11;96758.23;225931;1276;22632;-78
2023/11/28 15:38:09;;;;;;;27.30;18.70;;;;;;;-1.08;83.58;96768.39;226141;1276;22569;-78
2023/11/28 15:43:12;;;;;;;28.60;17.80;;;;;;;-1.15;83.69;96778.47;226164;1271;24787;-78
2023/11/28 15:48:14;;;;;;;28.80;17.50;;;;;;;-1.21;83.77;96787.88;226226;1276;22531;-78
2023/11/28 15:53:16;;;;;;;26.70;18.00;;;;;;;-1.26;83.38;96792.96;226137;1276;22737;-78
2023/11/28 15:58:18;;;;;;;26.00;18.20;;;;;;;-1.31;83.53;96797.45;226031;1271;22558;-78
2023/11/28 16:03:20;;;;;;;27.00;17.80;;;;;;;-1.33;83.70;96799.80;226165;1276;22528;-77
2023/11/28 16:08:22;;;;;;;31.50;19.40;;;;;;;-1.37;83.55;96807.08;226121;1275;22562;-79
2023/11/28 16:13:25;;;;;;;26.60;18.10;;;;;;;-1.41;83.73;96815.78;226060;1276;22545;-78
2023/11/28 16:18:27;;;;;;;25.80;17.90;;;;;;;-1.44;83.66;96826.04;226198;1273;22711;-78
2023/11/28 16:23:30;;;;;;;25.90;17.70;;;;;;;-1.47;83.79;96835.32;226170;1274;22595;-77
2023/11/28 16:28:33;;;;;;;28.90;17.20;;;;;;;-1.48;83.55;96843.80;226161;1276;22570;-77
2023/11/28 16:33:38;;;;;;;29.40;18.50;;;;;;;-1.50;83.84;96853.95;226243;1273;22559;-79
2023/11/28 16:38:41;;;;;;;29.90;19.40;;;;;;;-1.50;84.18;96867.00;226174;1269;22550;-78
2023/11/28 16:43:43;;;;;;;30.50;19.80;;;;;;;-1.53;84.03;96867.29;226134;1276;22477;-78
2023/11/28 16:48:45;;;;;;;32.80;21.80;;;;;;;-1.57;84.11;96869.08;226104;1276;22552;-79
2023/11/28 16:53:48;;;;;;;32.70;20.40;;;;;;;-1.60;83.95;96876.83;226074;1276;22723;-78
2023/11/28 16:58:51;;;;;;;30.80;20.60;;;;;;;-1.64;83.84;96882.95;226173;1270;22901;-78
2023/11/28 17:03:54;;;;;;;33.00;21.60;;;;;;;-1.69;83.93;96886.91;226136;1276;22722;-78
2023/11/28 17:08:56;;;;;;;32.10;21.10;;;;;;;-1.75;84.11;96893.69;226185;1270;22566;-80
2023/11/28 17:13:59;;;;;;;29.70;19.70;;;;;;;-1.77;84.18;96912.02;226224;1254;22594;-79
2023/11/28 17:19:03;;;;;;;33.80;21.50;;;;;;;-1.79;83.89;96922.26;226206;1274;22586;-80
2023/11/28 17:24:06;;;;;;;35.90;21.10;;;;;;;-1.79;84.35;96935.01;226190;1276;25363;-80
2023/11/28 17:29:09;;;;;;;33.00;21.40;;;;;;;-1.78;84.50;96935.60;226328;1273;22547;-79
2023/11/28 17:34:12;;;;;;;34.60;21.30;;;;;;;-1.78;84.29;96935.80;226162;1274;22556;-79
2023/11/28 17:39:15;;;;;;;33.80;21.80;;;;;;;-1.77;84.34;96945.64;226181;1268;22556;-79
2023/11/28 17:44:19;;;;;;;37.10;23.00;;;;;;;-1.75;84.40;96953.05;226405;1257;22562;-80
2023/11/28 17:49:21;;;;;;;36.30;23.00;;;;;;;-1.71;84.52;96970.42;226171;1273;22572;-80
2023/11/28 17:54:23;;;;;;;34.90;21.80;;;;;;;-1.68;84.46;96982.12;226204;1273;23466;-80
2023/11/28 17:59:29;;;;;;;29.90;19.70;;;;;;;-1.64;84.46;96994.39;226146;1273;23021;-80
2023/11/28 18:04:39;;;;;;;32.90;21.50;;;;;;;-1.60;84.47;97007.31;226188;1272;22548;-80
2023/11/28 18:09:43;;;;;;;31.30;19.80;;;;;;;-1.60;84.63;97021.74;226270;1276;22567;-80
2023/11/28 18:14:45;;;;;;;30.10;19.60;;;;;;;-1.63;84.34;97027.08;226251;1270;22660;-79
2023/11/28 18:19:47;;;;;;;34.10;19.70;;;;;;;-1.67;84.58;97028.10;226212;1272;22551;-80
2023/11/28 18:24:50;;;;;;;34.40;20.90;;;;;;;-1.73;84.69;97041.36;226155;1260;22640;-80
2023/11/28 18:29:53;;;;;;;33.20;21.00;;;;;;;-1.75;84.74;97054.03;226212;1273;22591;-79
2023/11/28 18:34:56;;;;;;;38.40;22.30;;;;;;;-1.79;84.68;97067.18;226189;1276;22547;-79
2023/11/28 18:39:58;;;;;;;36.20;21.20;;;;;;;-1.81;84.53;97074.11;226233;1276;22546;-79
2023/11/28 18:45:01;;;;;;;36.50;22.00;;;;;;;-1.82;84.80;97084.91;226230;1276;22543;-79
2023/11/28 18:50:03;;;;;;;38.20;22.80;;;;;;;-1.83;84.83;97094.21;226225;1276;22555;-80
2023/11/28 18:55:08;;;;;;;39.60;22.30;;;;;;;-1.86;84.66;97103.09;226231;1275;23454;-78
2023/11/28 19:00:12;;;;;;;35.00;21.80;;;;;;;-1.89;84.70;97107.06;226175;1276;22548;-79
2023/11/28 19:05:15;;;;;;;37.50;21.40;;;;;;;-1.95;84.40;97116.59;226078;1275;25348;-80
2023/11/28 19:10:17;;;;;;;39.20;22.20;;;;;;;-1.97;84.63;97126.66;226224;1272;22722;-80
2023/11/28 19:15:19;;;;;;;38.20;22.10;;;;;;;-1.98;84.92;97130.52;226124;1273;23489;-79
2023/11/28 19:20:22;;;;;;;37.50;21.50;;;;;;;-2.01;84.63;97140.10;225974;1276;22526;-80
2023/11/28 19:25:28;;;;;;;38.40;23.20;;;;;;;-2.05;84.74;97155.98;226193;1273;22534;-78
2023/11/28 19:30:30;;;;;;;42.00;24.10;;;;;;;-2.07;85.06;97164.02;226149;1270;22539;-78
2023/11/28 19:35:33;;;;;;;42.70;24.20;;;;;;;-2.12;85.04;97169.34;226157;1275;22554;-80
2023/11/28 19:40:36;;;;;;;41.80;24.50;;;;;;;-2.16;85.06;97180.07;225979;1276;23021;-78
2023/11/28 19:45:41;;;;;;;43.60;23.00;;;;;;;-2.22;84.85;97190.65;226176;1272;24310;-80
2023/11/28 19:50:45;;;;;;;43.70;24.00;;;;;;;-2.26;84.91;97196.02;226166;1276;22610;-79
2023/11/28 19:55:47;;;;;;;44.90;25.70;;;;;;;-2.30;85.17;97204.71;226106;1272;24395;-79
2023/11/28 20:00:50;;;;;;;48.30;25.50;;;;;;;-2.34;84.68;97211.42;226188;1276;22542;-79
2023/11/28 20:05:52;;;;;;;44.20;24.50;;;;;;;-2.36;85.05;97217.38;226134;1273;22547;-79
2023/11/28 20:10:55;;;;;;;43.00;25.50;;;;;;;-2.39;85.01;97223.45;226205;1276;23273;-78
2023/11/28 20:15:57;;;;;;;45.20;25.20;;;;;;;-2.40;85.19;97229.77;226175;1276;22563;-79
2023/11/28 20:21:07;;;;;;;42.80;24.70;;;;;;;-2.42;85.13;97238.10;226186;1273;22552;-78
2023/11/28 20:26:10;;;;;;;46.10;24.60;;;;;;;-2.45;85.14;97248.16;226150;1276;22601;-79
2023/11/28 20:31:12;;;;;;;44.20;25.80;;;;;;;-2.47;85.05;97260.77;226180;1266;22571;-79
2023/11/28 20:36:14;;;;;;;44.60;24.70;;;;;;;-2.48;85.16;97271.23;226134;1270;22563;-79
2023/11/28 20:41:17;;;;;;;47.90;25.50;;;;;;;-2.52;85.18;97274.99;226134;1276;22559;-79
2023/11/28 20:46:19;;;;;;;46.80;26.00;;;;;;;-2.57;85.05;97282.77;226170;1276;22566;-79
2023/11/28 20:51:22;;;;;;;47.60;25.50;;;;;;;-2.63;85.04;97282.58;226184;1273;24687;-78
2023/11/28 20:56:25;;;;;;;46.20;25.40;;;;;;;-2.66;85.06;97292.19;226089;1272;24939;-79
2023/11/28 21:01:29;;;;;;;43.80;23.90;;;;;;;-2.68;85.61;97304.59;226142;1273;22654;-81
2023/11/28 21:06:32;;;;;;;49.50;26.20;;;;;;;-2.68;85.59;97313.98;226206;1273;25477;-79
2023/11/28 21:11:34;;;;;;;48.40;25.80;;;;;;;-2.69;85.51;97315.59;226139;1269;22608;-79
2023/11/28 21:16:37;;;;;;;48.70;25.60;;;;;;;-2.69;85.45;97325.77;226040;1276;24454;-79
2023/11/28 21:21:39;;;;;;;43.30;24.40;;;;;;;-2.72;85.11;97338.95;226013;1276;22568;-79
2023/11/28 21:26:42;;;;;;;46.90;25.60;;;;;;;-2.75;85.53;97349.55;226132;1275;25543;-80
2023/11/28 21:31:46;;;;;;;47.40;25.80;;;;;;;-2.77;85.37;97352.98;226207;1273;22547;-80
2023/11/28 21:36:51;;;;;;;45.20;24.60;;;;;;;-2.77;85.50;97364.21;226202;1272;22606;-80
2023/11/28 21:41:53;;;;;;;47.30;25.60;;;;;;;-2.76;85.42;97373.30;226243;1270;22554;-80
2023/11/28 21:47:04;;;;;;;42.30;23.30;;;;;;;-2.78;85.48;97394.92;226158;1271;22975;-79
2023/11/28 21:52:07;;;;;;;46.60;25.50;;;;;;;-2.80;85.31;97403.94;226232;1269;22562;-79
2023/11/28 21:57:09;;;;;;;49.00;27.70;;;;;;;-2.81;85.24;97415.71;226226;1269;22636;-79
2023/11/28 22:02:11;;;;;;;46.20;25.80;;;;;;;-2.82;85.29;97428.11;226188;1272;22591;-79
2023/11/28 22:07:16;;;;;;;44.10;25.50;;;;;;;-2.83;85.23;97434.53;226153;1276;22543;-79
2023/11/28 22:12:18;;;;;;;46.30;25.50;;;;;;;-2.84;85.89;97433.45;226189;1270;25425;-79
2023/11/28 22:17:20;;;;;;;45.20;24.70;;;;;;;-2.87;85.66;97440.89;226160;1272;22554;-80
2023/11/28 22:22:22;;;;;;;51.80;26.90;;;;;;;-2.89;85.73;97459.48;226160;1271;22665;-79
2023/11/28 22:27:25;;;;;;;45.30;25.80;;;;;;;-2.88;85.61;97472.55;226163;1273;22616;-79
2023/11/28 22:32:27;;;;;;;45.70;24.70;;;;;;;-2.90;85.41;97481.66;226155;1266;22565;-79
2023/11/28 22:37:30;;;;;;;42.30;23.60;;;;;;;-2.92;85.63;97488.35;226144;1273;22612;-79
2023/11/28 22:42:32;;;;;;;47.50;24.80;;;;;;;-2.92;85.37;97497.89;226104;1276;22647;-79
2023/11/28 22:47:35;;;;;;;49.80;26.20;;;;;;;-2.94;85.41;97506.27;226100;1275;22842;-79
2023/11/28 22:52:38;;;;;;;47.00;25.80;;;;;;;-2.93;85.07;97517.80;226186;1273;22684;-79
2023/11/28 22:57:40;;;;;;;48.50;25.60;;;;;;;-2.95;85.06;97530.33;226189;1273;22582;-77
2023/11/28 23:02:42;;;;;;;46.40;26.10;;;;;;;-2.96;85.10;97535.04;226156;1273;22551;-77